Hlavní strana
METAR-TAF:

METAR-TAF

Letiště :

Letiště Bukurešť Henriho Coandy

Bukurešť, Rumunsko

zeměpisná šířka: 44-33N, zeměpisná délka: 026-06E, výška: 95 m

Aktuální stav počasí

Zpráva byla vytvořena před 19 minutami, v 04:30 UTC
Východoseverovýchodní vítr 14 kt
Teplota 1°C
Vlhkost vzduchu 86%
Tlak 1032 hPa
Viditelnost 10 km a více
Zataženo ve výšce 4600 ft

METAR: LROP 170430Z 06014KT 9999 OVC046 01/M01 Q1032 R88/29//95 NOSIG

Čas: 06:49 (04:49 UTC)

Předpověď počasí

Zpráva byla vytvořena před 30 minutami, v 04:19 UTC
Předpověď platná od 17 v 04 UTC do 17 v 24 UTC
Východoseverovýchodní vítr 16 kt
Viditelnost 10 km a více
Polojasno ve výšce 4000 ft

TAF: LROP 170419Z 1704/1724 07016KT 9999 SCT040

Stav a předpovědi počasí z více než 4 000 letišť (zprávy METAR a TAF).

Červené a žluté tečky na mapě představují dostupné meteorologické stanice.

Když kurzor umístíte na tečku, zobrazí se název stanice.

Pak kliknutím zobrazíte stav a předpověď počasí.

Chcete-li změnit mapu, kliknutím na zelené tlačítko se znaménkem +mapu přiblížíte, kliknutím na zelené tlačítko se znaménkem – mapu oddálíte a kliknutím na zelené šipky přejdete na sousední mapy.


METAR-TAF: